sensor_id;sensor_type;location;lat;lon;timestamp;P1;durP1;ratioP1;P2;durP2;ratioP2
77010;SDS011;65945;53.148;17.956;2023-11-19T00:00:59;46.40;;;22.20;;
77010;SDS011;65945;53.148;17.956;2023-11-19T00:03:46;47.30;;;22.70;;
77010;SDS011;65945;53.148;17.956;2023-11-19T00:06:13;44.50;;;22.00;;
77010;SDS011;65945;53.148;17.956;2023-11-19T00:08:39;37.50;;;18.90;;
77010;SDS011;65945;53.148;17.956;2023-11-19T00:11:06;41.10;;;19.00;;
77010;SDS011;65945;53.148;17.956;2023-11-19T00:13:34;40.00;;;18.90;;
77010;SDS011;65945;53.148;17.956;2023-11-19T00:16:00;38.80;;;18.00;;
77010;SDS011;65945;53.148;17.956;2023-11-19T00:18:27;41.50;;;19.20;;
77010;SDS011;65945;53.148;17.956;2023-11-19T00:20:54;37.70;;;18.40;;
77010;SDS011;65945;53.148;17.956;2023-11-19T00:23:20;43.20;;;18.60;;
77010;SDS011;65945;53.148;17.956;2023-11-19T00:25:47;46.40;;;20.70;;
77010;SDS011;65945;53.148;17.956;2023-11-19T00:28:14;46.40;;;22.00;;
77010;SDS011;65945;53.148;17.956;2023-11-19T00:30:40;45.20;;;20.60;;
77010;SDS011;65945;53.148;17.956;2023-11-19T00:33:07;43.90;;;20.70;;
77010;SDS011;65945;53.148;17.956;2023-11-19T00:35:34;42.50;;;20.40;;
77010;SDS011;65945;53.148;17.956;2023-11-19T00:38:00;47.40;;;22.50;;
77010;SDS011;65945;53.148;17.956;2023-11-19T00:40:27;44.90;;;20.80;;
77010;SDS011;65945;53.148;17.956;2023-11-19T00:42:53;41.60;;;19.30;;
77010;SDS011;65945;53.148;17.956;2023-11-19T00:45:20;39.30;;;16.40;;
77010;SDS011;65945;53.148;17.956;2023-11-19T00:47:47;37.70;;;17.10;;
77010;SDS011;65945;53.148;17.956;2023-11-19T00:50:13;39.20;;;16.80;;
77010;SDS011;65945;53.148;17.956;2023-11-19T00:52:40;39.50;;;18.20;;
77010;SDS011;65945;53.148;17.956;2023-11-19T00:55:06;37.30;;;17.60;;
77010;SDS011;65945;53.148;17.956;2023-11-19T00:57:33;40.00;;;18.80;;
77010;SDS011;65945;53.148;17.956;2023-11-19T01:00:00;41.70;;;19.00;;
77010;SDS011;65945;53.148;17.956;2023-11-19T01:02:26;46.00;;;20.60;;
77010;SDS011;65945;53.148;17.956;2023-11-19T01:04:53;52.10;;;22.30;;
77010;SDS011;65945;53.148;17.956;2023-11-19T01:07:21;57.70;;;24.00;;
77010;SDS011;65945;53.148;17.956;2023-11-19T01:09:48;51.70;;;21.20;;
77010;SDS011;65945;53.148;17.956;2023-11-19T01:12:14;38.50;;;18.20;;
77010;SDS011;65945;53.148;17.956;2023-11-19T01:14:41;37.70;;;19.00;;
77010;SDS011;65945;53.148;17.956;2023-11-19T01:17:08;44.80;;;20.70;;
77010;SDS011;65945;53.148;17.956;2023-11-19T01:19:35;47.50;;;22.50;;
77010;SDS011;65945;53.148;17.956;2023-11-19T01:22:02;63.40;;;25.50;;
77010;SDS011;65945;53.148;17.956;2023-11-19T01:24:28;65.60;;;29.40;;
77010;SDS011;65945;53.148;17.956;2023-11-19T01:26:57;46.80;;;21.10;;
77010;SDS011;65945;53.148;17.956;2023-11-19T01:29:26;42.60;;;19.50;;
77010;SDS011;65945;53.148;17.956;2023-11-19T01:31:52;45.30;;;19.70;;
77010;SDS011;65945;53.148;17.956;2023-11-19T01:34:19;45.60;;;19.60;;
77010;SDS011;65945;53.148;17.956;2023-11-19T01:36:46;47.40;;;19.50;;
77010;SDS011;65945;53.148;17.956;2023-11-19T01:39:13;32.30;;;15.40;;
77010;SDS011;65945;53.148;17.956;2023-11-19T01:41:42;40.60;;;18.30;;
77010;SDS011;65945;53.148;17.956;2023-11-19T01:44:09;43.80;;;19.80;;
77010;SDS011;65945;53.148;17.956;2023-11-19T01:46:40;40.00;;;18.10;;
77010;SDS011;65945;53.148;17.956;2023-11-19T01:49:08;41.30;;;16.40;;
77010;SDS011;65945;53.148;17.956;2023-11-19T01:51:35;43.30;;;18.70;;
77010;SDS011;65945;53.148;17.956;2023-11-19T01:54:02;57.90;;;22.40;;
77010;SDS011;65945;53.148;17.956;2023-11-19T01:56:29;47.80;;;18.60;;
77010;SDS011;65945;53.148;17.956;2023-11-19T01:58:57;46.60;;;20.40;;
77010;SDS011;65945;53.148;17.956;2023-11-19T02:01:25;44.60;;;19.40;;
77010;SDS011;65945;53.148;17.956;2023-11-19T02:03:52;41.80;;;18.30;;
77010;SDS011;65945;53.148;17.956;2023-11-19T02:06:19;49.20;;;20.50;;
77010;SDS011;65945;53.148;17.956;2023-11-19T02:08:46;44.10;;;17.90;;
77010;SDS011;65945;53.148;17.956;2023-11-19T02:11:12;44.80;;;20.50;;
77010;SDS011;65945;53.148;17.956;2023-11-19T02:13:39;62.80;;;24.90;;
77010;SDS011;65945;53.148;17.956;2023-11-19T02:16:07;65.60;;;28.90;;
77010;SDS011;65945;53.148;17.956;2023-11-19T02:18:37;71.20;;;27.80;;
77010;SDS011;65945;53.148;17.956;2023-11-19T02:21:04;66.10;;;28.60;;
77010;SDS011;65945;53.148;17.956;2023-11-19T02:23:31;68.20;;;27.60;;
77010;SDS011;65945;53.148;17.956;2023-11-19T02:26:13;53.20;;;22.50;;
77010;SDS011;65945;53.148;17.956;2023-11-19T02:28:44;68.10;;;26.90;;
77010;SDS011;65945;53.148;17.956;2023-11-19T02:31:11;59.10;;;23.30;;
77010;SDS011;65945;53.148;17.956;2023-11-19T02:33:38;55.50;;;22.60;;
77010;SDS011;65945;53.148;17.956;2023-11-19T02:36:05;54.50;;;24.10;;
77010;SDS011;65945;53.148;17.956;2023-11-19T02:38:34;51.40;;;21.90;;
77010;SDS011;65945;53.148;17.956;2023-11-19T02:41:04;46.90;;;19.90;;
77010;SDS011;65945;53.148;17.956;2023-11-19T02:43:33;56.10;;;25.10;;
77010;SDS011;65945;53.148;17.956;2023-11-19T02:46:03;62.30;;;26.20;;
77010;SDS011;65945;53.148;17.956;2023-11-19T02:48:35;64.80;;;28.90;;
77010;SDS011;65945;53.148;17.956;2023-11-19T02:51:02;64.10;;;27.60;;
77010;SDS011;65945;53.148;17.956;2023-11-19T02:53:30;66.50;;;27.30;;
77010;SDS011;65945;53.148;17.956;2023-11-19T02:55:58;58.50;;;25.60;;
77010;SDS011;65945;53.148;17.956;2023-11-19T02:58:32;58.00;;;27.50;;
77010;SDS011;65945;53.148;17.956;2023-11-19T03:01:00;67.00;;;28.60;;
77010;SDS011;65945;53.148;17.956;2023-11-19T03:03:36;55.90;;;25.90;;
77010;SDS011;65945;53.148;17.956;2023-11-19T03:06:07;65.40;;;29.20;;
77010;SDS011;65945;53.148;17.956;2023-11-19T03:08:35;56.30;;;26.20;;
77010;SDS011;65945;53.148;17.956;2023-11-19T03:11:02;53.90;;;25.90;;
77010;SDS011;65945;53.148;17.956;2023-11-19T03:13:31;58.30;;;24.40;;
77010;SDS011;65945;53.148;17.956;2023-11-19T03:15:57;55.50;;;24.70;;
77010;SDS011;65945;53.148;17.956;2023-11-19T03:18:24;50.40;;;23.20;;
77010;SDS011;65945;53.148;17.956;2023-11-19T03:20:50;52.60;;;23.10;;
77010;SDS011;65945;53.148;17.956;2023-11-19T03:23:18;49.90;;;23.80;;
77010;SDS011;65945;53.148;17.956;2023-11-19T03:25:45;52.10;;;21.90;;
77010;SDS011;65945;53.148;17.956;2023-11-19T03:28:11;52.20;;;24.70;;
77010;SDS011;65945;53.148;17.956;2023-11-19T03:30:38;47.50;;;23.30;;
77010;SDS011;65945;53.148;17.956;2023-11-19T03:33:05;59.90;;;31.80;;
77010;SDS011;65945;53.148;17.956;2023-11-19T03:35:31;78.60;;;40.90;;
77010;SDS011;65945;53.148;17.956;2023-11-19T03:37:59;77.50;;;41.40;;
77010;SDS011;65945;53.148;17.956;2023-11-19T03:40:27;76.10;;;40.50;;
77010;SDS011;65945;53.148;17.956;2023-11-19T03:42:57;61.50;;;32.80;;
77010;SDS011;65945;53.148;17.956;2023-11-19T03:45:24;32.70;;;18.30;;
77010;SDS011;65945;53.148;17.956;2023-11-19T03:47:51;39.10;;;19.30;;
77010;SDS011;65945;53.148;17.956;2023-11-19T03:50:18;37.10;;;17.50;;
77010;SDS011;65945;53.148;17.956;2023-11-19T03:52:46;35.00;;;16.90;;
77010;SDS011;65945;53.148;17.956;2023-11-19T03:55:13;35.00;;;17.70;;
77010;SDS011;65945;53.148;17.956;2023-11-19T03:57:40;40.70;;;17.70;;
77010;SDS011;65945;53.148;17.956;2023-11-19T04:00:07;37.80;;;16.10;;
77010;SDS011;65945;53.148;17.956;2023-11-19T04:02:40;35.10;;;15.30;;
77010;SDS011;65945;53.148;17.956;2023-11-19T04:05:07;35.20;;;15.60;;
77010;SDS011;65945;53.148;17.956;2023-11-19T04:07:34;35.90;;;16.50;;
77010;SDS011;65945;53.148;17.956;2023-11-19T04:10:00;34.00;;;15.90;;
77010;SDS011;65945;53.148;17.956;2023-11-19T04:12:27;34.00;;;15.10;;
77010;SDS011;65945;53.148;17.956;2023-11-19T04:14:54;37.10;;;17.40;;
77010;SDS011;65945;53.148;17.956;2023-11-19T04:17:20;39.30;;;17.80;;
77010;SDS011;65945;53.148;17.956;2023-11-19T04:19:47;41.10;;;18.00;;
77010;SDS011;65945;53.148;17.956;2023-11-19T04:22:14;36.00;;;17.80;;
77010;SDS011;65945;53.148;17.956;2023-11-19T04:24:40;34.80;;;17.20;;
77010;SDS011;65945;53.148;17.956;2023-11-19T04:27:07;32.30;;;14.30;;
77010;SDS011;65945;53.148;17.956;2023-11-19T04:29:34;31.10;;;14.50;;
77010;SDS011;65945;53.148;17.956;2023-11-19T04:32:00;31.40;;;15.60;;
77010;SDS011;65945;53.148;17.956;2023-11-19T04:34:27;28.80;;;14.70;;
77010;SDS011;65945;53.148;17.956;2023-11-19T04:36:54;30.20;;;14.80;;
77010;SDS011;65945;53.148;17.956;2023-11-19T04:39:20;35.10;;;16.90;;
77010;SDS011;65945;53.148;17.956;2023-11-19T04:41:48;28.70;;;14.10;;
77010;SDS011;65945;53.148;17.956;2023-11-19T04:44:16;28.40;;;14.30;;
77010;SDS011;65945;53.148;17.956;2023-11-19T04:46:43;34.80;;;16.50;;
77010;SDS011;65945;53.148;17.956;2023-11-19T04:49:10;28.50;;;16.10;;
77010;SDS011;65945;53.148;17.956;2023-11-19T04:51:44;24.80;;;12.60;;
77010;SDS011;65945;53.148;17.956;2023-11-19T04:54:13;26.40;;;13.60;;
77010;SDS011;65945;53.148;17.956;2023-11-19T04:56:40;31.40;;;14.90;;
77010;SDS011;65945;53.148;17.956;2023-11-19T04:59:11;32.90;;;15.50;;
77010;SDS011;65945;53.148;17.956;2023-11-19T05:01:38;53.90;;;22.60;;
77010;SDS011;65945;53.148;17.956;2023-11-19T05:04:04;34.20;;;15.90;;
77010;SDS011;65945;53.148;17.956;2023-11-19T05:06:31;30.90;;;15.80;;
77010;SDS011;65945;53.148;17.956;2023-11-19T05:08:59;26.70;;;14.00;;
77010;SDS011;65945;53.148;17.956;2023-11-19T05:11:34;33.70;;;15.90;;
77010;SDS011;65945;53.148;17.956;2023-11-19T05:14:03;37.20;;;17.90;;
77010;SDS011;65945;53.148;17.956;2023-11-19T05:16:30;31.00;;;17.00;;
77010;SDS011;65945;53.148;17.956;2023-11-19T05:18:57;30.30;;;15.50;;
77010;SDS011;65945;53.148;17.956;2023-11-19T05:21:24;29.00;;;14.70;;
77010;SDS011;65945;53.148;17.956;2023-11-19T05:23:50;27.60;;;12.10;;
77010;SDS011;65945;53.148;17.956;2023-11-19T05:26:20;34.30;;;16.40;;
77010;SDS011;65945;53.148;17.956;2023-11-19T05:28:48;29.60;;;13.00;;
77010;SDS011;65945;53.148;17.956;2023-11-19T05:31:15;29.30;;;15.20;;
77010;SDS011;65945;53.148;17.956;2023-11-19T05:33:43;31.90;;;15.20;;
77010;SDS011;65945;53.148;17.956;2023-11-19T05:36:10;32.40;;;16.50;;
77010;SDS011;65945;53.148;17.956;2023-11-19T05:38:39;38.80;;;18.10;;
77010;SDS011;65945;53.148;17.956;2023-11-19T05:41:06;24.80;;;12.50;;
77010;SDS011;65945;53.148;17.956;2023-11-19T05:43:33;32.80;;;15.90;;
77010;SDS011;65945;53.148;17.956;2023-11-19T05:45:59;32.70;;;16.70;;
77010;SDS011;65945;53.148;17.956;2023-11-19T05:48:27;25.90;;;13.70;;
77010;SDS011;65945;53.148;17.956;2023-11-19T05:50:55;31.50;;;15.50;;
77010;SDS011;65945;53.148;17.956;2023-11-19T05:53:21;32.90;;;15.90;;
77010;SDS011;65945;53.148;17.956;2023-11-19T05:55:48;31.60;;;15.20;;
77010;SDS011;65945;53.148;17.956;2023-11-19T05:58:24;27.50;;;14.00;;
77010;SDS011;65945;53.148;17.956;2023-11-19T06:00:55;35.40;;;16.40;;
77010;SDS011;65945;53.148;17.956;2023-11-19T06:03:22;28.60;;;14.80;;
77010;SDS011;65945;53.148;17.956;2023-11-19T06:05:49;27.90;;;14.20;;
77010;SDS011;65945;53.148;17.956;2023-11-19T06:08:16;24.90;;;12.90;;
77010;SDS011;65945;53.148;17.956;2023-11-19T06:10:43;28.40;;;12.70;;
77010;SDS011;65945;53.148;17.956;2023-11-19T06:13:12;28.70;;;14.30;;
77010;SDS011;65945;53.148;17.956;2023-11-19T06:15:41;23.70;;;9.80;;
77010;SDS011;65945;53.148;17.956;2023-11-19T06:18:08;31.10;;;15.00;;
77010;SDS011;65945;53.148;17.956;2023-11-19T06:20:36;26.20;;;14.10;;
77010;SDS011;65945;53.148;17.956;2023-11-19T06:23:03;32.20;;;14.80;;
77010;SDS011;65945;53.148;17.956;2023-11-19T06:25:29;24.80;;;11.40;;
77010;SDS011;65945;53.148;17.956;2023-11-19T06:27:56;32.60;;;15.40;;
77010;SDS011;65945;53.148;17.956;2023-11-19T06:30:23;30.90;;;14.80;;
77010;SDS011;65945;53.148;17.956;2023-11-19T06:32:50;27.80;;;14.10;;
77010;SDS011;65945;53.148;17.956;2023-11-19T06:35:17;28.80;;;13.90;;
77010;SDS011;65945;53.148;17.956;2023-11-19T06:37:44;26.40;;;12.50;;
77010;SDS011;65945;53.148;17.956;2023-11-19T06:40:10;23.80;;;11.90;;
77010;SDS011;65945;53.148;17.956;2023-11-19T06:42:38;28.00;;;13.60;;
77010;SDS011;65945;53.148;17.956;2023-11-19T06:45:06;23.20;;;13.00;;
77010;SDS011;65945;53.148;17.956;2023-11-19T06:47:33;24.90;;;13.20;;
77010;SDS011;65945;53.148;17.956;2023-11-19T06:49:59;27.40;;;14.40;;
77010;SDS011;65945;53.148;17.956;2023-11-19T06:52:26;27.20;;;13.30;;
77010;SDS011;65945;53.148;17.956;2023-11-19T06:54:52;44.50;;;18.00;;
77010;SDS011;65945;53.148;17.956;2023-11-19T06:57:19;90.50;;;26.90;;
77010;SDS011;65945;53.148;17.956;2023-11-19T06:59:46;34.50;;;15.50;;
77010;SDS011;65945;53.148;17.956;2023-11-19T07:02:13;28.10;;;14.20;;
77010;SDS011;65945;53.148;17.956;2023-11-19T07:04:40;31.70;;;16.10;;
77010;SDS011;65945;53.148;17.956;2023-11-19T07:07:07;26.30;;;14.30;;
77010;SDS011;65945;53.148;17.956;2023-11-19T07:09:33;28.20;;;13.30;;
77010;SDS011;65945;53.148;17.956;2023-11-19T07:12:00;27.90;;;14.10;;
77010;SDS011;65945;53.148;17.956;2023-11-19T07:14:28;29.70;;;13.90;;
77010;SDS011;65945;53.148;17.956;2023-11-19T07:16:55;23.40;;;11.40;;
77010;SDS011;65945;53.148;17.956;2023-11-19T07:19:22;23.90;;;13.00;;
77010;SDS011;65945;53.148;17.956;2023-11-19T07:21:49;21.00;;;11.20;;
77010;SDS011;65945;53.148;17.956;2023-11-19T07:24:15;23.90;;;11.50;;
77010;SDS011;65945;53.148;17.956;2023-11-19T07:26:43;27.60;;;14.10;;
77010;SDS011;65945;53.148;17.956;2023-11-19T07:29:11;22.50;;;12.10;;
77010;SDS011;65945;53.148;17.956;2023-11-19T07:31:37;24.10;;;12.80;;
77010;SDS011;65945;53.148;17.956;2023-11-19T07:34:04;20.50;;;12.30;;
77010;SDS011;65945;53.148;17.956;2023-11-19T07:36:32;25.00;;;11.30;;
77010;SDS011;65945;53.148;17.956;2023-11-19T07:38:59;21.10;;;11.40;;
77010;SDS011;65945;53.148;17.956;2023-11-19T07:41:25;28.10;;;13.70;;
77010;SDS011;65945;53.148;17.956;2023-11-19T07:43:52;21.20;;;10.40;;
77010;SDS011;65945;53.148;17.956;2023-11-19T07:46:19;25.20;;;12.80;;
77010;SDS011;65945;53.148;17.956;2023-11-19T07:48:46;22.40;;;12.00;;
77010;SDS011;65945;53.148;17.956;2023-11-19T07:51:13;28.60;;;13.30;;
77010;SDS011;65945;53.148;17.956;2023-11-19T07:53:41;42.20;;;18.30;;
77010;SDS011;65945;53.148;17.956;2023-11-19T07:56:08;37.70;;;15.80;;
77010;SDS011;65945;53.148;17.956;2023-11-19T07:58:35;21.70;;;10.00;;
77010;SDS011;65945;53.148;17.956;2023-11-19T08:01:01;39.10;;;14.80;;
77010;SDS011;65945;53.148;17.956;2023-11-19T08:03:29;35.30;;;15.10;;
77010;SDS011;65945;53.148;17.956;2023-11-19T08:06:00;35.90;;;14.00;;
77010;SDS011;65945;53.148;17.956;2023-11-19T08:08:28;35.40;;;14.80;;
77010;SDS011;65945;53.148;17.956;2023-11-19T08:10:56;30.60;;;13.60;;
77010;SDS011;65945;53.148;17.956;2023-11-19T08:13:23;31.80;;;14.70;;
77010;SDS011;65945;53.148;17.956;2023-11-19T08:15:51;25.60;;;14.10;;
77010;SDS011;65945;53.148;17.956;2023-11-19T08:18:18;29.00;;;13.70;;
77010;SDS011;65945;53.148;17.956;2023-11-19T08:20:44;33.10;;;16.70;;
77010;SDS011;65945;53.148;17.956;2023-11-19T08:23:11;29.40;;;14.10;;
77010;SDS011;65945;53.148;17.956;2023-11-19T08:25:39;31.80;;;15.70;;
77010;SDS011;65945;53.148;17.956;2023-11-19T08:28:05;31.10;;;14.90;;
77010;SDS011;65945;53.148;17.956;2023-11-19T08:30:32;29.90;;;14.70;;
77010;SDS011;65945;53.148;17.956;2023-11-19T08:32:59;28.00;;;14.20;;
77010;SDS011;65945;53.148;17.956;2023-11-19T08:35:29;31.30;;;16.00;;
77010;SDS011;65945;53.148;17.956;2023-11-19T08:37:56;23.90;;;12.30;;
77010;SDS011;65945;53.148;17.956;2023-11-19T08:40:23;24.40;;;13.10;;
77010;SDS011;65945;53.148;17.956;2023-11-19T08:42:50;28.30;;;14.90;;
77010;SDS011;65945;53.148;17.956;2023-11-19T08:45:16;23.50;;;11.00;;
77010;SDS011;65945;53.148;17.956;2023-11-19T08:47:43;21.90;;;12.20;;
77010;SDS011;65945;53.148;17.956;2023-11-19T08:50:11;25.30;;;12.70;;
77010;SDS011;65945;53.148;17.956;2023-11-19T08:52:38;28.30;;;12.60;;
77010;SDS011;65945;53.148;17.956;2023-11-19T08:55:05;19.20;;;9.30;;
77010;SDS011;65945;53.148;17.956;2023-11-19T08:57:32;23.40;;;12.40;;
77010;SDS011;65945;53.148;17.956;2023-11-19T09:00:01;21.90;;;12.20;;
77010;SDS011;65945;53.148;17.956;2023-11-19T09:02:36;23.80;;;12.20;;
77010;SDS011;65945;53.148;17.956;2023-11-19T09:05:04;25.90;;;13.10;;
77010;SDS011;65945;53.148;17.956;2023-11-19T09:07:33;28.60;;;14.20;;
77010;SDS011;65945;53.148;17.956;2023-11-19T09:10:00;23.70;;;11.70;;
77010;SDS011;65945;53.148;17.956;2023-11-19T09:12:26;28.50;;;14.60;;
77010;SDS011;65945;53.148;17.956;2023-11-19T09:14:53;22.60;;;11.50;;
77010;SDS011;65945;53.148;17.956;2023-11-19T09:17:20;27.80;;;14.50;;
77010;SDS011;65945;53.148;17.956;2023-11-19T09:19:47;27.30;;;14.10;;
77010;SDS011;65945;53.148;17.956;2023-11-19T09:22:13;27.00;;;13.50;;
77010;SDS011;65945;53.148;17.956;2023-11-19T09:24:40;25.40;;;13.10;;
77010;SDS011;65945;53.148;17.956;2023-11-19T09:27:07;18.20;;;7.90;;
77010;SDS011;65945;53.148;17.956;2023-11-19T09:29:34;28.10;;;13.80;;
77010;SDS011;65945;53.148;17.956;2023-11-19T09:32:00;28.70;;;14.30;;
77010;SDS011;65945;53.148;17.956;2023-11-19T09:34:27;27.20;;;13.60;;
77010;SDS011;65945;53.148;17.956;2023-11-19T09:36:54;19.50;;;9.10;;
77010;SDS011;65945;53.148;17.956;2023-11-19T09:39:21;29.60;;;14.60;;
77010;SDS011;65945;53.148;17.956;2023-11-19T09:41:47;31.40;;;14.90;;
77010;SDS011;65945;53.148;17.956;2023-11-19T09:44:14;33.90;;;15.70;;
77010;SDS011;65945;53.148;17.956;2023-11-19T09:46:44;29.00;;;13.70;;
77010;SDS011;65945;53.148;17.956;2023-11-19T09:49:12;27.80;;;14.00;;
77010;SDS011;65945;53.148;17.956;2023-11-19T09:51:39;31.80;;;14.60;;
77010;SDS011;65945;53.148;17.956;2023-11-19T09:54:06;30.50;;;15.30;;
77010;SDS011;65945;53.148;17.956;2023-11-19T09:56:33;27.00;;;14.80;;
77010;SDS011;65945;53.148;17.956;2023-11-19T09:59:03;29.70;;;14.90;;
77010;SDS011;65945;53.148;17.956;2023-11-19T10:01:29;26.90;;;15.10;;
77010;SDS011;65945;53.148;17.956;2023-11-19T10:03:58;29.50;;;15.10;;
77010;SDS011;65945;53.148;17.956;2023-11-19T10:06:25;29.60;;;15.20;;
77010;SDS011;65945;53.148;17.956;2023-11-19T10:08:53;26.80;;;12.80;;
77010;SDS011;65945;53.148;17.956;2023-11-19T10:11:20;27.10;;;13.70;;
77010;SDS011;65945;53.148;17.956;2023-11-19T10:13:47;23.50;;;11.60;;
77010;SDS011;65945;53.148;17.956;2023-11-19T10:16:17;30.00;;;14.10;;
77010;SDS011;65945;53.148;17.956;2023-11-19T10:18:47;29.00;;;14.30;;
77010;SDS011;65945;53.148;17.956;2023-11-19T10:21:17;30.30;;;14.70;;
77010;SDS011;65945;53.148;17.956;2023-11-19T10:26:18;30.00;;;15.90;;
77010;SDS011;65945;53.148;17.956;2023-11-19T10:28:49;36.80;;;17.90;;
77010;SDS011;65945;53.148;17.956;2023-11-19T10:31:16;29.70;;;14.80;;
77010;SDS011;65945;53.148;17.956;2023-11-19T10:33:44;30.20;;;14.50;;
77010;SDS011;65945;53.148;17.956;2023-11-19T10:36:12;34.80;;;15.80;;
77010;SDS011;65945;53.148;17.956;2023-11-19T10:38:39;27.80;;;14.90;;
77010;SDS011;65945;53.148;17.956;2023-11-19T10:41:07;29.50;;;14.00;;
77010;SDS011;65945;53.148;17.956;2023-11-19T10:43:43;32.50;;;16.50;;
77010;SDS011;65945;53.148;17.956;2023-11-19T10:46:13;34.90;;;16.80;;
77010;SDS011;65945;53.148;17.956;2023-11-19T10:48:40;33.40;;;15.60;;
77010;SDS011;65945;53.148;17.956;2023-11-19T10:51:07;35.40;;;16.60;;
77010;SDS011;65945;53.148;17.956;2023-11-19T10:53:38;33.20;;;15.80;;
77010;SDS011;65945;53.148;17.956;2023-11-19T10:56:06;33.30;;;15.70;;
77010;SDS011;65945;53.148;17.956;2023-11-19T10:58:38;38.30;;;17.60;;
77010;SDS011;65945;53.148;17.956;2023-11-19T11:01:16;31.30;;;16.10;;
77010;SDS011;65945;53.148;17.956;2023-11-19T11:03:47;35.00;;;15.90;;
77010;SDS011;65945;53.148;17.956;2023-11-19T11:06:14;34.00;;;17.30;;
77010;SDS011;65945;53.148;17.956;2023-11-19T11:08:41;29.00;;;11.90;;
77010;SDS011;65945;53.148;17.956;2023-11-19T11:11:08;39.90;;;17.70;;
77010;SDS011;65945;53.148;17.956;2023-11-19T11:13:40;31.90;;;15.70;;
77010;SDS011;65945;53.148;17.956;2023-11-19T11:16:09;35.50;;;15.30;;
77010;SDS011;65945;53.148;17.956;2023-11-19T11:18:36;52.70;;;22.70;;
77010;SDS011;65945;53.148;17.956;2023-11-19T11:21:05;33.20;;;14.30;;
77010;SDS011;65945;53.148;17.956;2023-11-19T11:29:20;44.90;;;20.80;;
77010;SDS011;65945;53.148;17.956;2023-11-19T11:39:36;52.10;;;24.10;;
77010;SDS011;65945;53.148;17.956;2023-11-19T11:45:07;49.90;;;22.10;;
77010;SDS011;65945;53.148;17.956;2023-11-19T11:50:09;44.30;;;21.00;;
77010;SDS011;65945;53.148;17.956;2023-11-19T11:55:25;64.50;;;27.20;;
77010;SDS011;65945;53.148;17.956;2023-11-19T11:57:55;48.20;;;20.50;;
77010;SDS011;65945;53.148;17.956;2023-11-19T12:00:22;47.90;;;21.20;;
77010;SDS011;65945;53.148;17.956;2023-11-19T12:02:56;81.70;;;28.90;;
77010;SDS011;65945;53.148;17.956;2023-11-19T12:05:25;52.40;;;21.70;;
77010;SDS011;65945;53.148;17.956;2023-11-19T12:07:56;51.00;;;24.10;;
77010;SDS011;65945;53.148;17.956;2023-11-19T12:10:26;45.40;;;20.40;;
77010;SDS011;65945;53.148;17.956;2023-11-19T12:13:01;51.30;;;21.80;;
77010;SDS011;65945;53.148;17.956;2023-11-19T12:15:28;56.80;;;24.20;;
77010;SDS011;65945;53.148;17.956;2023-11-19T12:17:55;47.30;;;22.10;;
77010;SDS011;65945;53.148;17.956;2023-11-19T12:20:22;40.20;;;17.00;;
77010;SDS011;65945;53.148;17.956;2023-11-19T12:22:50;59.30;;;24.10;;
77010;SDS011;65945;53.148;17.956;2023-11-19T12:25:18;46.40;;;22.50;;
77010;SDS011;65945;53.148;17.956;2023-11-19T12:27:49;51.60;;;23.60;;
77010;SDS011;65945;53.148;17.956;2023-11-19T12:30:23;52.10;;;22.00;;
77010;SDS011;65945;53.148;17.956;2023-11-19T12:32:51;58.90;;;25.40;;
77010;SDS011;65945;53.148;17.956;2023-11-19T12:35:19;52.90;;;23.00;;
77010;SDS011;65945;53.148;17.956;2023-11-19T12:37:47;43.00;;;20.30;;
77010;SDS011;65945;53.148;17.956;2023-11-19T12:40:16;44.90;;;19.60;;
77010;SDS011;65945;53.148;17.956;2023-11-19T12:42:45;55.50;;;25.60;;
77010;SDS011;65945;53.148;17.956;2023-11-19T12:45:13;47.10;;;20.90;;
77010;SDS011;65945;53.148;17.956;2023-11-19T12:47:40;35.60;;;16.00;;
77010;SDS011;65945;53.148;17.956;2023-11-19T12:50:07;41.90;;;19.10;;
77010;SDS011;65945;53.148;17.956;2023-11-19T12:52:36;46.60;;;17.90;;
77010;SDS011;65945;53.148;17.956;2023-11-19T12:55:04;58.70;;;24.20;;
77010;SDS011;65945;53.148;17.956;2023-11-19T12:57:39;54.10;;;23.60;;
77010;SDS011;65945;53.148;17.956;2023-11-19T13:00:07;38.30;;;18.70;;
77010;SDS011;65945;53.148;17.956;2023-11-19T13:02:48;42.60;;;18.60;;
77010;SDS011;65945;53.148;17.956;2023-11-19T13:07:57;49.30;;;19.20;;
77010;SDS011;65945;53.148;17.956;2023-11-19T13:10:27;35.60;;;16.90;;
77010;SDS011;65945;53.148;17.956;2023-11-19T13:13:08;38.30;;;17.30;;
77010;SDS011;65945;53.148;17.956;2023-11-19T13:15:35;44.80;;;21.40;;
77010;SDS011;65945;53.148;17.956;2023-11-19T13:18:02;39.00;;;17.70;;
77010;SDS011;65945;53.148;17.956;2023-11-19T13:20:29;44.50;;;19.30;;
77010;SDS011;65945;53.148;17.956;2023-11-19T13:22:59;55.50;;;25.30;;
77010;SDS011;65945;53.148;17.956;2023-11-19T13:25:27;58.10;;;24.40;;
77010;SDS011;65945;53.148;17.956;2023-11-19T13:27:55;51.40;;;23.40;;
77010;SDS011;65945;53.148;17.956;2023-11-19T13:30:22;46.40;;;21.50;;
77010;SDS011;65945;53.148;17.956;2023-11-19T13:32:50;51.30;;;23.50;;
77010;SDS011;65945;53.148;17.956;2023-11-19T13:35:18;45.60;;;20.40;;
77010;SDS011;65945;53.148;17.956;2023-11-19T13:37:45;48.80;;;22.70;;
77010;SDS011;65945;53.148;17.956;2023-11-19T13:40:12;54.20;;;22.40;;
77010;SDS011;65945;53.148;17.956;2023-11-19T13:42:44;45.90;;;21.70;;
77010;SDS011;65945;53.148;17.956;2023-11-19T13:45:11;41.50;;;20.30;;
77010;SDS011;65945;53.148;17.956;2023-11-19T13:47:40;35.80;;;18.40;;
77010;SDS011;65945;53.148;17.956;2023-11-19T13:50:11;37.90;;;18.80;;
77010;SDS011;65945;53.148;17.956;2023-11-19T13:52:40;40.50;;;19.30;;
77010;SDS011;65945;53.148;17.956;2023-11-19T13:55:11;35.70;;;17.30;;
77010;SDS011;65945;53.148;17.956;2023-11-19T13:57:39;43.00;;;20.40;;
77010;SDS011;65945;53.148;17.956;2023-11-19T14:00:07;39.80;;;19.50;;
77010;SDS011;65945;53.148;17.956;2023-11-19T14:02:39;37.30;;;17.60;;
77010;SDS011;65945;53.148;17.956;2023-11-19T14:05:07;36.60;;;16.90;;
77010;SDS011;65945;53.148;17.956;2023-11-19T14:07:34;34.80;;;17.20;;
77010;SDS011;65945;53.148;17.956;2023-11-19T14:10:01;35.30;;;15.50;;
77010;SDS011;65945;53.148;17.956;2023-11-19T14:12:28;42.80;;;19.70;;
77010;SDS011;65945;53.148;17.956;2023-11-19T14:14:54;39.50;;;19.10;;
77010;SDS011;65945;53.148;17.956;2023-11-19T14:17:21;32.90;;;16.50;;
77010;SDS011;65945;53.148;17.956;2023-11-19T14:19:47;39.10;;;17.90;;
77010;SDS011;65945;53.148;17.956;2023-11-19T14:22:14;34.20;;;17.40;;
77010;SDS011;65945;53.148;17.956;2023-11-19T14:24:41;34.70;;;16.90;;
77010;SDS011;65945;53.148;17.956;2023-11-19T14:27:09;36.30;;;18.30;;
77010;SDS011;65945;53.148;17.956;2023-11-19T14:29:36;38.10;;;17.30;;
77010;SDS011;65945;53.148;17.956;2023-11-19T14:32:03;35.50;;;18.00;;
77010;SDS011;65945;53.148;17.956;2023-11-19T14:34:30;34.50;;;16.80;;
77010;SDS011;65945;53.148;17.956;2023-11-19T14:36:58;31.80;;;14.90;;
77010;SDS011;65945;53.148;17.956;2023-11-19T14:39:26;35.20;;;16.00;;